• Join FlightAware (Why Join?)
  • Login
  • US Flag 
11:24PM EDT


 

Airport Tracker/Info


-or-


 

Live Flight TrackerFlight Track Log ✈ SWA1841 ✈ 18-Apr-2013 ✈ KHOU - KECP

Flight Track Log - Related Links

Times and Time Zones

All times are in EDT time to prevent confusion due to time zone crossing. See the SWA1841 flight status page for this flight to view local times or setup timezone preferences in your user account.

Time Position Orientation Groundspeed Altitude Reporting Facility
EDT Latitude Longitude Course Direction KTS MPH feet Rate Location/Type
08:58PM 29.6500 -95.2872 33° Northeast 137 158 700  Level Houston Center
08:59PM 29.6722 -95.2708 33° Northeast 197 227 2,300 2,160 Climbing Houston Center
09:00PM 29.6486 -95.2514 144° Southeast 259 298 3,400 2,220 Climbing Houston Center
09:00PM 29.6244 -95.2225 134° Southeast 260 299 4,600 1,860 Climbing Houston Center
09:01PM 29.6381 -95.1275 81° East 287 330 6,800 2,340 Climbing Houston Center
09:02PM 29.6542 -95.0311 79° East 302 348 9,500 2,700 Climbing Houston Center
09:03PM 29.6750 -94.9058 79° East 332 382 12,400 2,100 Climbing Houston Center
09:05PM 29.6942 -94.7878 79° East 370 426 13,900 1,980 Climbing Houston Center
09:06PM 29.6997 -94.6636 87° East 391 450 16,600 2,580 Climbing Houston Center
09:07PM 29.6969 -94.5339 91° East 403 464 19,300 2,400 Climbing Houston Center
09:08PM 29.6953 -94.3969 91° East 422 486 21,600 2,220 Climbing Houston Center
09:09PM 29.6914 -94.2536 92° East 442 509 24,000 1,980 Climbing Houston Center
09:10PM 29.7100 -94.1042 82° East 466 536 25,700 1,560 Climbing Houston Center
09:11PM 29.7486 -93.9175 77° East 496 571 27,300 1,620 Climbing Houston Center
09:12PM 29.7808 -93.7550 77° East 514 592 29,100 2,100 Climbing Houston Center
09:13PM 29.8125 -93.5950 77° East 517 595 31,700 1,980 Climbing Houston Center
09:14PM 29.8406 -93.4358 78° East 513 590 33,200 1,260 Climbing Houston Center
09:15PM 29.8717 -93.2717 78° East 522 601 34,400 1,200 Climbing Houston Center
09:16PM 29.9058 -93.0933 77° East 526 605 35,700 1,200 Climbing Houston Center
09:17PM 29.9381 -92.9286 77° East 530 610 37,000 1,200 Climbing Houston Center
09:18PM 29.9708 -92.7628 77° East 534 615 38,200 600 Climbing Houston Center
09:20PM 30.0389 -92.3986 78° East 534 615 39,000 240 Climbing Houston Center
09:21PM 30.0708 -92.2336 77° East 532 612 39,000  Level Houston Center
09:22PM 30.1008 -92.0678 78° East 533 613 39,000  Level Houston Center
09:23PM 30.1314 -91.9031 78° East 529 609 39,000  Level Houston Center
09:24PM 30.1619 -91.7378 78° East 528 608 39,000  Level Houston Center
09:25PM 30.1956 -91.5583 78° East 523 602 39,000  Level Houston Center
09:26PM 30.2244 -91.3956 78° East 521 600 39,000  Level Houston Center
09:27PM 30.2522 -91.2317 79° East 520 598 39,000  Level Houston Center
09:28PM 30.2814 -91.0686 78° East 520 598 39,000  Level Houston Center
09:29PM 30.3161 -90.8731 78° East 518 596 39,000  Level Houston Center
09:30PM 30.3444 -90.7106 79° East 516 594 39,000  Level Houston Center
09:31PM 30.3694 -90.5464 80° East 519 597 39,000  Level Houston Center
09:32PM 30.3953 -90.3817 80° East 519 597 39,000  Level Houston Center
09:33PM 30.4194 -90.2172 80° East 519 597 39,000  Level Houston Center
09:34PM 30.4444 -90.0531 80° East 517 595 39,000  Level Houston Center
09:35PM 30.4700 -89.8861 80° East 517 595 39,000  Level Houston Center
09:36PM 30.4961 -89.7150 80° East 520 598 39,000  Level Houston Center
09:38PM 30.5183 -89.5494 81° East 517 595 39,000  Level Houston Center
09:39PM 30.5417 -89.3861 81° East 512 589 39,000 -180 Level Houston Center
09:40PM 30.5686 -89.1889 81° East 516 594 38,700 -660 Descending Houston Center
09:41PM 30.5900 -89.0264 81° East 511 588 37,700 -960 Descending Houston Center
09:42PM 30.6128 -88.8597 81° East 507 583 36,800 -960 Descending Houston Center
09:43PM 30.6350 -88.7028 81° East 498 573 35,800 -960 Descending Houston Center
09:44PM 30.6569 -88.5422 81° East 503 579 34,900 -960 Descending Houston Center
09:45PM 30.6792 -88.3822 81° East 506 582 33,900 -960 Descending Houston Center
09:46PM 30.6992 -88.2242 82° East 505 581 33,000 -720 Descending Houston Center
09:47PM 30.7261 -88.0342 81° East 498 573 32,500 -780 Descending Houston Center
09:48PM 30.7469 -87.8803 81° East 487 560 31,500 -960 Descending Houston Center
09:48PM 30.7569 -87.7897 83° East 490 564 30,900 -1,560 Descending Jacksonville Center
09:49PM 30.7711 -87.6358 84° East 485 558 29,000 -2,040 Descending Jacksonville Center
09:50PM 30.7808 -87.4839 86° East 475 547 26,900 -2,100 Descending Jacksonville Center
09:51PM 30.7903 -87.3369 86° East 470 541 24,900 -1,980 Descending Jacksonville Center
09:52PM 30.7972 -87.1922 87° East 458 527 23,000 -1,920 Descending Jacksonville Center
09:53PM 30.8058 -87.0572 86° East 442 509 21,100 -1,860 Descending Jacksonville Center
09:54PM 30.8144 -86.9197 86° East 430 495 19,300 -1,800 Descending Jacksonville Center
09:55PM 30.8228 -86.7919 86° East 409 471 17,500 -1,920 Descending Jacksonville Center
09:56PM 30.8269 -86.6542 88° East 393 452 15,500 -1,860 Descending Jacksonville Center
09:57PM 30.8217 -86.5403 93° East 381 438 13,800 -1,680 Descending Jacksonville Center
09:58PM 30.8186 -86.4314 92° East 351 404 12,200 -1,620 Descending Jacksonville Center
09:59PM 30.8175 -86.3225 91° East 345 397 10,600 -1,260 Descending Jacksonville Center
10:00PM 30.8117 -86.2231 94° East 328 377 9,700 -1,080 Descending Jacksonville Center
10:01PM 30.7636 -86.1514 128° Southeast 287 330 8,500 -1,320 Descending Jacksonville Center
10:02PM 30.7131 -86.0844 131° Southeast 275 316 7,100 -1,560 Descending Jacksonville Center
10:03PM 30.6644 -86.0225 132° Southeast 270 311 5,400 -1,560 Descending Jacksonville Center
10:04PM 30.6178 -85.9606 131° Southeast 259 298 4,000 -1,140 Descending Jacksonville Center
10:05PM 30.5733 -85.9061 133° Southeast 245 282 3,200 -540 Descending Jacksonville Center
10:06PM 30.5322 -85.8733 146° Southeast 215 247 3,000 -300 Descending Jacksonville Center
10:07PM 30.4931 -85.8528 156° South 176 203 2,700 -540 Descending Jacksonville Center
10:08PM 30.4581 -85.8372 159° South 151 174 2,000 -720 Descending Jacksonville Center
10:09PM 30.4269 -85.8267 164° South 137 158 1,300 -720 Descending Jacksonville Center
10:10PM 30.3958 -85.8136 160° South 121 139 600 -540 Descending Jacksonville Center
10:11PM 30.3669 -85.8008 159° South 121 139 300 -300 Descending Jacksonville Center
10:13PM 30.3582 -85.7956 147° Southeast  Level Estimated